Time;durP1;ratioP1;P1;durP2;ratioP2;P2;SDS_P1;SDS_P2;PMS_P1;PMS_P2;Temp;Humidity;BMP_temperature;BMP_pressure;BME280_temperature;BME280_humidity;BME280_pressure;Samples;Min_cycle;Max_cycle;Signal;HPM_P1;HPM_P2
2024/03/26 00:02:23;;;;;;;0.30;0.20;;;6.80;99.90;;;;;;5086734;28;20807;-74
2024/03/26 00:04:49;;;;;;;0.30;0.20;;;6.80;99.90;;;;;;5085651;28;20203;-78
2024/03/26 00:07:15;;;;;;;0.30;0.20;;;6.80;99.90;;;;;;5086619;28;20237;-78
2024/03/26 00:09:41;;;;;;;0.30;0.20;;;6.80;99.90;;;;;;5085258;28;20232;-78
2024/03/26 00:12:06;;;;;;;0.30;0.20;;;6.80;99.90;;;;;;5086522;28;20239;-78
2024/03/26 00:14:32;;;;;;;0.30;0.20;;;6.70;99.90;;;;;;5085262;28;20188;-74
2024/03/26 00:16:58;;;;;;;0.30;0.20;;;6.70;99.90;;;;;;5085388;28;20176;-74
2024/03/26 00:19:23;;;;;;;0.30;0.20;;;6.70;99.90;;;;;;5085333;28;20208;-78
2024/03/26 00:21:49;;;;;;;0.30;0.20;;;6.70;99.90;;;;;;5085093;28;20172;-78
2024/03/26 00:24:14;;;;;;;0.30;0.20;;;6.70;99.90;;;;;;5086651;28;20235;-74
2024/03/26 00:26:40;;;;;;;0.30;0.20;;;6.70;99.90;;;;;;5086164;28;20267;-78
2024/03/26 00:29:06;;;;;;;0.30;0.20;;;6.70;99.90;;;;;;5086532;28;20204;-74
2024/03/26 00:31:33;;;;;;;0.40;0.40;;;6.70;99.90;;;;;;5084766;28;20215;-73
2024/03/26 00:34:00;;;;;;;0.30;0.20;;;6.60;99.90;;;;;;5084854;28;20601;-78
2024/03/26 00:36:26;;;;;;;0.30;0.20;;;6.50;99.90;;;;;;5084821;28;20422;-74
2024/03/26 00:38:51;;;;;;;0.30;0.20;;;6.50;99.90;;;;;;5086277;28;20204;-74
2024/03/26 00:41:17;;;;;;;0.40;0.40;;;6.40;99.90;;;;;;5085403;28;20419;-73
2024/03/26 00:43:43;;;;;;;0.30;0.20;;;6.30;99.90;;;;;;5086258;28;20285;-78
2024/03/26 00:46:08;;;;;;;0.30;0.20;;;6.30;99.90;;;;;;5086476;28;20184;-74
2024/03/26 00:48:34;;;;;;;0.30;0.20;;;6.30;99.90;;;;;;5085798;28;20203;-74
2024/03/26 00:51:00;;;;;;;0.30;0.20;;;6.30;99.90;;;;;;5086073;28;20233;-78
2024/03/26 00:53:25;;;;;;;0.30;0.20;;;6.30;99.90;;;;;;5083457;28;20201;-78
2024/03/26 00:55:51;;;;;;;0.30;0.20;;;6.20;99.90;;;;;;5084543;28;20417;-74
2024/03/26 00:58:16;;;;;;;0.30;0.20;;;6.10;99.90;;;;;;5084304;28;20194;-74
2024/03/26 01:00:42;;;;;;;0.30;0.20;;;6.10;99.90;;;;;;5086172;28;20212;-74
2024/03/26 01:03:08;;;;;;;0.30;0.20;;;6.10;99.90;;;;;;5084223;28;20865;-74
2024/03/26 01:05:33;;;;;;;0.30;0.20;;;6.10;99.90;;;;;;5084787;28;20176;-77
2024/03/26 01:07:59;;;;;;;0.30;0.20;;;6.10;99.90;;;;;;5085475;28;20188;-78
2024/03/26 01:10:25;;;;;;;0.30;0.20;;;6.10;99.90;;;;;;5085864;28;20229;-78
2024/03/26 01:12:50;;;;;;;0.30;0.20;;;6.10;99.90;;;;;;5083915;28;20383;-78
2024/03/26 01:15:16;;;;;;;0.30;0.20;;;6.10;99.90;;;;;;5086313;28;20417;-78
2024/03/26 01:17:42;;;;;;;0.30;0.20;;;6.10;99.90;;;;;;5084070;28;20220;-77
2024/03/26 01:20:08;;;;;;;0.30;0.20;;;6.10;99.90;;;;;;5084385;28;20208;-76
2024/03/26 01:22:34;;;;;;;2.10;2.00;;;6.10;99.90;;;;;;5084165;28;20192;-78
2024/03/26 01:24:59;;;;;;;0.30;0.20;;;6.00;99.90;;;;;;5086084;28;20424;-74
2024/03/26 01:27:25;;;;;;;0.30;0.20;;;6.00;99.90;;;;;;5085381;28;20200;-74
2024/03/26 01:29:50;;;;;;;0.30;0.20;;;6.00;99.90;;;;;;5084240;28;20173;-78
2024/03/26 01:32:16;;;;;;;0.30;0.27;;;6.10;99.90;;;;;;5083928;28;20300;-74
2024/03/26 01:34:42;;;;;;;0.30;0.20;;;6.10;99.90;;;;;;5083727;28;20188;-78
2024/03/26 01:37:07;;;;;;;0.40;0.20;;;6.10;99.90;;;;;;5085253;28;20255;-78
2024/03/26 01:39:33;;;;;;;0.30;0.20;;;6.10;99.90;;;;;;5084235;28;20207;-77
2024/03/26 01:41:59;;;;;;;0.30;0.20;;;6.10;99.90;;;;;;5083933;28;20176;-78
2024/03/26 01:44:24;;;;;;;0.30;0.20;;;6.00;99.90;;;;;;5083858;28;20197;-74
2024/03/26 01:46:50;;;;;;;0.30;0.30;;;6.10;99.90;;;;;;5083836;28;20179;-74
2024/03/26 01:49:17;;;;;;;0.30;0.20;;;6.00;99.90;;;;;;5085434;28;20688;-74
2024/03/26 01:51:44;;;;;;;0.30;0.20;;;6.00;99.90;;;;;;5084637;28;20793;-78
2024/03/26 01:54:11;;;;;;;0.30;0.20;;;6.00;99.90;;;;;;5084763;28;20200;-74
2024/03/26 01:56:39;;;;;;;0.30;0.20;;;6.00;99.90;;;;;;5083635;28;20376;-73
2024/03/26 01:59:06;;;;;;;0.30;0.20;;;6.10;99.90;;;;;;5085352;28;20208;-73
2024/03/26 02:01:32;;;;;;;0.30;0.20;;;6.00;99.90;;;;;;5083986;28;20584;-77
2024/03/26 02:03:57;;;;;;;0.30;0.20;;;6.00;99.90;;;;;;5085314;28;20390;-78
2024/03/26 02:06:24;;;;;;;0.30;0.20;;;6.00;99.90;;;;;;5083603;28;20420;-77
2024/03/26 02:08:51;;;;;;;0.30;0.20;;;5.80;99.90;;;;;;5084797;28;20822;-74
2024/03/26 02:11:17;;;;;;;0.30;0.20;;;5.80;99.90;;;;;;5085161;28;20327;-78
2024/03/26 02:13:46;;;;;;;0.30;0.20;;;5.80;99.90;;;;;;5083616;28;20204;-77
2024/03/26 02:16:12;;;;;;;0.30;0.20;;;5.80;99.90;;;;;;5085306;28;20430;-77
2024/03/26 02:18:38;;;;;;;0.30;0.20;;;5.80;99.90;;;;;;5083271;28;20473;-78
2024/03/26 02:21:04;;;;;;;0.30;0.20;;;5.90;99.90;;;;;;5083876;28;20405;-76
2024/03/26 02:23:30;;;;;;;0.30;0.20;;;5.90;99.90;;;;;;5084656;28;20202;-78
2024/03/26 02:25:55;;;;;;;0.30;0.27;;;5.90;99.90;;;;;;5085007;28;20191;-73
2024/03/26 02:28:21;;;;;;;0.30;0.20;;;5.90;99.90;;;;;;5084699;28;20645;-74
2024/03/26 02:30:47;;;;;;;0.30;0.20;;;5.90;99.90;;;;;;5085117;28;20255;-74
2024/03/26 02:33:12;;;;;;;0.30;0.20;;;5.90;99.90;;;;;;5084862;28;20220;-78
2024/03/26 02:35:38;;;;;;;0.30;0.20;;;5.80;99.90;;;;;;5083716;28;20584;-77
2024/03/26 02:38:03;;;;;;;0.30;0.20;;;5.80;99.90;;;;;;5084741;28;20302;-78
2024/03/26 02:40:29;;;;;;;0.30;0.20;;;5.80;99.90;;;;;;5084900;28;20221;-75
2024/03/26 02:42:56;;;;;;;0.30;0.20;;;5.70;99.90;;;;;;5084657;28;20193;-74
2024/03/26 02:45:21;;;;;;;0.30;0.20;;;5.70;99.90;;;;;;5085109;28;20176;-74
2024/03/26 02:47:47;;;;;;;0.30;0.20;;;5.70;99.90;;;;;;5085267;28;20207;-74
2024/03/26 02:50:13;;;;;;;0.30;0.23;;;5.70;99.90;;;;;;5088883;28;20185;-74
2024/03/26 02:52:38;;;;;;;0.30;0.20;;;5.70;99.90;;;;;;5087789;28;20220;-78
2024/03/26 02:55:04;;;;;;;0.30;0.20;;;5.70;99.90;;;;;;5085835;28;20180;-74
2024/03/26 02:57:30;;;;;;;0.30;0.20;;;5.70;99.90;;;;;;5086459;28;20196;-78
2024/03/26 02:59:55;;;;;;;0.30;0.30;;;5.70;99.90;;;;;;5087127;28;20511;-74
2024/03/26 03:02:21;;;;;;;0.30;0.20;;;5.60;99.90;;;;;;5086622;28;20222;-73
2024/03/26 03:04:47;;;;;;;0.30;0.20;;;5.60;99.90;;;;;;5086884;28;20468;-78
2024/03/26 03:07:12;;;;;;;0.30;0.20;;;5.60;99.90;;;;;;5087963;28;20173;-74
2024/03/26 03:09:40;;;;;;;0.30;0.20;;;5.50;99.90;;;;;;5087947;28;20431;-78
2024/03/26 03:12:05;;;;;;;0.30;0.20;;;5.50;99.90;;;;;;5086584;28;20208;-78
2024/03/26 03:14:32;;;;;;;0.30;0.20;;;5.50;99.90;;;;;;5086530;28;20367;-74
2024/03/26 03:16:57;;;;;;;0.30;0.20;;;5.50;99.90;;;;;;5087889;28;20618;-78
2024/03/26 03:19:23;;;;;;;0.30;0.20;;;5.40;99.90;;;;;;5086511;28;20308;-74
2024/03/26 03:21:49;;;;;;;0.30;0.20;;;5.40;99.90;;;;;;5087468;28;20657;-75
2024/03/26 03:24:14;;;;;;;0.30;0.20;;;5.30;99.90;;;;;;5086195;28;20201;-78
2024/03/26 03:26:40;;;;;;;0.30;0.20;;;5.30;99.90;;;;;;5087400;28;20184;-73
2024/03/26 03:29:06;;;;;;;0.30;0.20;;;5.30;99.90;;;;;;5087878;28;20613;-78
2024/03/26 03:31:32;;;;;;;0.30;0.20;;;5.30;99.90;;;;;;5087876;28;20300;-76
2024/03/26 03:33:57;;;;;;;0.30;0.20;;;5.30;99.90;;;;;;5087364;28;20443;-78
2024/03/26 03:36:23;;;;;;;0.30;0.20;;;5.30;99.90;;;;;;5086228;28;20677;-77
2024/03/26 03:38:49;;;;;;;0.30;0.20;;;5.30;99.90;;;;;;5087143;28;20287;-78
2024/03/26 03:41:15;;;;;;;0.30;0.20;;;5.30;99.90;;;;;;5086123;28;20653;-74
2024/03/26 03:43:40;;;;;;;0.30;0.20;;;5.20;99.90;;;;;;5086947;28;20242;-74
2024/03/26 03:46:06;;;;;;;0.30;0.20;;;5.20;99.90;;;;;;5086079;28;20638;-74
2024/03/26 03:48:32;;;;;;;0.30;0.20;;;5.10;99.90;;;;;;5085345;28;20193;-78
2024/03/26 03:50:58;;;;;;;0.30;0.20;;;5.10;99.90;;;;;;5087704;28;20248;-78
2024/03/26 03:53:23;;;;;;;0.30;0.20;;;5.10;99.90;;;;;;5084364;28;20740;-74
2024/03/26 03:55:49;;;;;;;0.30;0.20;;;5.00;99.90;;;;;;5085527;28;20181;-74
2024/03/26 03:58:15;;;;;;;0.30;0.20;;;5.00;99.90;;;;;;5086425;28;20583;-77
2024/03/26 04:00:40;;;;;;;0.30;0.20;;;5.00;99.90;;;;;;5085931;28;20736;-74
2024/03/26 04:03:06;;;;;;;0.50;0.50;;;5.00;99.90;;;;;;5086742;28;20188;-78
2024/03/26 04:05:36;;;;;;;0.30;0.20;;;5.00;99.90;;;;;;5086008;28;20425;-78
2024/03/26 04:08:03;;;;;;;0.30;0.20;;;5.10;99.90;;;;;;5086554;28;20577;-74
2024/03/26 04:10:31;;;;;;;0.30;0.20;;;5.20;99.90;;;;;;5087145;28;20652;-74
2024/03/26 04:12:57;;;;;;;0.30;0.20;;;5.20;99.90;;;;;;5086220;28;20368;-74
2024/03/26 04:15:23;;;;;;;0.30;0.20;;;5.30;99.90;;;;;;5085628;28;20193;-75
2024/03/26 04:17:52;;;;;;;2.20;2.10;;;5.30;99.90;;;;;;5086205;28;20196;-78
2024/03/26 04:20:18;;;;;;;0.30;0.30;;;5.30;99.90;;;;;;5085464;28;20814;-74
2024/03/26 04:22:48;;;;;;;0.30;0.20;;;5.40;99.90;;;;;;5086029;28;20241;-78
2024/03/26 04:25:14;;;;;;;0.30;0.20;;;5.40;99.90;;;;;;5087022;28;20405;-74
2024/03/26 04:27:40;;;;;;;0.30;0.20;;;5.50;99.90;;;;;;5086611;28;20198;-78
2024/03/26 04:30:07;;;;;;;0.30;0.20;;;5.60;99.90;;;;;;5085184;28;20649;-78
2024/03/26 04:32:36;;;;;;;0.30;0.20;;;5.60;99.90;;;;;;5084790;28;20260;-78
2024/03/26 04:35:02;;;;;;;0.30;0.20;;;5.70;99.90;;;;;;5086652;28;20172;-74
2024/03/26 04:37:28;;;;;;;0.30;0.20;;;5.70;99.90;;;;;;5086198;28;20196;-78
2024/03/26 04:39:53;;;;;;;0.30;0.20;;;5.70;99.90;;;;;;5084824;28;20233;-78
2024/03/26 04:42:20;;;;;;;0.30;0.20;;;5.70;99.90;;;;;;5085994;28;20164;-77
2024/03/26 04:44:46;;;;;;;0.30;0.20;;;5.70;99.90;;;;;;5086133;28;20172;-74
2024/03/26 04:47:11;;;;;;;0.30;0.20;;;5.80;99.90;;;;;;5085848;28;20176;-74
2024/03/26 04:49:37;;;;;;;0.30;0.20;;;5.80;99.90;;;;;;5084612;28;20225;-77
2024/03/26 04:52:02;;;;;;;0.30;0.20;;;5.80;99.90;;;;;;5085769;28;20710;-77
2024/03/26 04:54:28;;;;;;;0.30;0.20;;;5.80;99.90;;;;;;5084169;28;20211;-78
2024/03/26 04:56:54;;;;;;;0.30;0.20;;;5.80;99.90;;;;;;5084778;28;20172;-77
2024/03/26 04:59:20;;;;;;;0.30;0.20;;;5.90;99.90;;;;;;5084361;28;20219;-78
2024/03/26 05:01:45;;;;;;;0.30;0.20;;;5.90;99.90;;;;;;5084885;28;20168;-74
2024/03/26 05:04:11;;;;;;;0.30;0.20;;;5.90;99.90;;;;;;5084005;28;20239;-78
2024/03/26 05:06:36;;;;;;;0.30;0.20;;;5.90;99.90;;;;;;5086031;28;20858;-78
2024/03/26 05:09:04;;;;;;;0.30;0.20;;;5.90;99.90;;;;;;5085305;28;20290;-78
2024/03/26 05:11:30;;;;;;;0.30;0.20;;;5.90;99.90;;;;;;5083950;28;20712;-78
2024/03/26 05:13:55;;;;;;;0.30;0.20;;;5.90;99.90;;;;;;5085553;28;20208;-77
2024/03/26 05:16:21;;;;;;;0.30;0.20;;;5.90;99.90;;;;;;5085043;28;20187;-73
2024/03/26 05:18:47;;;;;;;0.30;0.20;;;5.90;99.90;;;;;;5083970;28;20249;-74
2024/03/26 05:21:13;;;;;;;0.30;0.20;;;5.90;99.90;;;;;;5085516;28;20252;-74
2024/03/26 05:23:39;;;;;;;0.30;0.20;;;5.90;99.90;;;;;;5084974;28;20669;-74
2024/03/26 05:26:04;;;;;;;0.30;0.20;;;5.90;99.90;;;;;;5086047;28;20226;-78
2024/03/26 05:28:30;;;;;;;0.30;0.20;;;5.90;99.90;;;;;;5081665;28;20199;-74
2024/03/26 05:31:14;;;;;;;0.30;0.20;;;6.00;99.90;;;;;;5082753;28;20215;-78
2024/03/26 05:33:39;;;;;;;0.30;0.20;;;6.00;99.90;;;;;;5081610;28;20261;-74
2024/03/26 05:36:05;;;;;;;0.30;0.20;;;6.00;99.90;;;;;;5080571;28;20395;-78
2024/03/26 05:38:31;;;;;;;0.30;0.20;;;6.10;99.90;;;;;;5082982;28;20287;-74
2024/03/26 05:40:56;;;;;;;0.30;0.20;;;6.10;99.90;;;;;;5085069;28;20740;-77
2024/03/26 05:43:22;;;;;;;0.30;0.20;;;6.10;99.90;;;;;;5083681;28;20680;-74
2024/03/26 05:45:48;;;;;;;0.30;0.20;;;6.10;99.90;;;;;;5085015;28;20194;-78
2024/03/26 05:48:13;;;;;;;0.30;0.20;;;6.10;99.90;;;;;;5083185;28;20212;-79
2024/03/26 05:50:39;;;;;;;0.30;0.20;;;6.10;99.90;;;;;;5085133;28;20413;-75
2024/03/26 05:53:06;;;;;;;0.30;0.20;;;6.10;99.90;;;;;;5082332;28;20216;-79
2024/03/26 05:55:32;;;;;;;0.30;0.22;;;6.20;99.90;;;;;;5081532;28;20267;-75
2024/03/26 05:57:58;;;;;;;0.30;0.20;;;6.20;99.90;;;;;;5081510;28;20602;-79
2024/03/26 06:00:24;;;;;;;0.30;0.20;;;6.20;99.90;;;;;;5083908;28;20702;-74
2024/03/26 06:02:49;;;;;;;0.30;0.20;;;6.20;99.90;;;;;;5083789;28;20700;-79
2024/03/26 06:05:15;;;;;;;0.30;0.20;;;6.30;99.90;;;;;;5082306;28;20209;-79
2024/03/26 06:07:41;;;;;;;0.30;0.20;;;6.50;99.90;;;;;;5083001;28;20204;-79
2024/03/26 06:10:07;;;;;;;0.30;0.20;;;6.50;99.90;;;;;;5084408;28;20227;-79
2024/03/26 06:12:32;;;;;;;0.30;0.20;;;6.70;99.90;;;;;;5081566;28;20468;-80
2024/03/26 06:14:58;;;;;;;0.30;0.20;;;6.70;99.90;;;;;;5084160;28;20410;-74
2024/03/26 06:17:24;;;;;;;0.30;0.20;;;6.80;99.90;;;;;;5081315;28;20200;-79
2024/03/26 06:19:50;;;;;;;0.30;0.20;;;6.80;99.90;;;;;;5079251;28;20528;-79
2024/03/26 06:22:16;;;;;;;0.30;0.20;;;6.90;99.90;;;;;;5073846;28;20176;-79
2024/03/26 06:24:42;;;;;;;0.30;0.20;;;7.00;99.90;;;;;;5082262;28;20529;-75
2024/03/26 06:27:07;;;;;;;0.30;0.20;;;7.10;99.90;;;;;;5084425;28;20713;-79
2024/03/26 06:29:33;;;;;;;0.30;0.20;;;7.10;99.90;;;;;;5083126;28;20203;-79
2024/03/26 06:31:59;;;;;;;0.30;0.20;;;7.30;99.90;;;;;;5082250;28;20207;-78
2024/03/26 06:34:24;;;;;;;0.30;0.20;;;7.40;99.90;;;;;;5085217;28;20220;-78
2024/03/26 06:36:50;;;;;;;0.30;0.20;;;7.40;99.90;;;;;;5076630;28;20414;-77
2024/03/26 06:39:18;;;;;;;0.30;0.20;;;7.60;99.90;;;;;;5086277;28;20193;-79
2024/03/26 06:41:44;;;;;;;0.30;0.20;;;7.70;99.90;;;;;;5086201;28;20165;-79
2024/03/26 06:44:10;;;;;;;0.30;0.20;;;7.80;99.90;;;;;;5083162;28;20216;-75
2024/03/26 06:46:35;;;;;;;2.37;2.23;;;7.90;99.90;;;;;;5081818;28;20822;-75
2024/03/26 06:49:01;;;;;;;0.30;0.20;;;8.00;99.90;;;;;;5081080;28;20511;-75
2024/03/26 06:51:27;;;;;;;0.97;0.97;;;8.20;99.90;;;;;;5082405;28;20718;-75
2024/03/26 06:53:52;;;;;;;4.83;3.80;;;8.30;99.90;;;;;;5081575;28;20243;-78
2024/03/26 06:56:20;;;;;;;0.30;0.20;;;8.40;99.90;;;;;;5081080;28;20180;-75
2024/03/26 06:58:45;;;;;;;0.30;0.25;;;8.50;99.90;;;;;;5071686;28;20296;-75
2024/03/26 07:01:12;;;;;;;2.43;2.33;;;8.50;99.90;;;;;;5075652;28;20824;-75
2024/03/26 07:03:38;;;;;;;0.30;0.20;;;8.70;99.90;;;;;;5072996;28;20819;-78
2024/03/26 07:06:06;;;;;;;0.30;0.20;;;8.90;99.90;;;;;;5081293;28;20220;-79
2024/03/26 07:08:32;;;;;;;0.30;0.20;;;9.00;99.90;;;;;;5080463;28;20189;-78
2024/03/26 07:10:58;;;;;;;0.30;0.20;;;9.10;99.90;;;;;;5081678;28;20306;-78
2024/03/26 07:13:27;;;;;;;0.40;0.37;;;9.20;99.90;;;;;;5084536;28;20262;-78
2024/03/26 07:15:53;;;;;;;0.30;0.20;;;9.20;99.90;;;;;;5086180;28;20486;-79
2024/03/26 07:18:19;;;;;;;0.30;0.20;;;9.30;99.90;;;;;;5085103;28;20665;-78
2024/03/26 07:20:45;;;;;;;0.40;0.40;;;9.50;99.90;;;;;;5085451;28;20172;-75
2024/03/26 07:23:11;;;;;;;0.30;0.20;;;9.70;99.90;;;;;;5086329;28;20203;-75
2024/03/26 07:25:37;;;;;;;1.33;1.33;;;9.80;99.90;;;;;;5086130;28;20184;-78
2024/03/26 07:28:02;;;;;;;0.30;0.20;;;10.00;99.90;;;;;;5085616;28;20583;-75
2024/03/26 07:30:28;;;;;;;0.30;0.20;;;10.10;99.90;;;;;;5083298;28;20211;-75
2024/03/26 07:32:54;;;;;;;0.80;0.80;;;10.20;99.90;;;;;;5084390;28;20433;-75
2024/03/26 07:35:20;;;;;;;0.30;0.20;;;10.30;99.90;;;;;;5083486;28;20662;-75
2024/03/26 07:37:45;;;;;;;0.30;0.20;;;10.50;99.90;;;;;;5083087;28;20222;-78
2024/03/26 07:40:11;;;;;;;0.30;0.20;;;10.70;99.90;;;;;;5083009;28;20279;-75
2024/03/26 07:42:37;;;;;;;0.30;0.30;;;10.90;99.90;;;;;;5077040;28;20823;-78
2024/03/26 07:45:03;;;;;;;0.30;0.20;;;11.10;99.90;;;;;;5074403;28;20173;-76
2024/03/26 07:47:29;;;;;;;0.30;0.20;;;11.30;99.90;;;;;;5073120;28;20941;-75
2024/03/26 07:49:54;;;;;;;0.30;0.20;;;11.40;99.90;;;;;;5067919;28;20538;-75
2024/03/26 07:52:20;;;;;;;2.20;2.10;;;11.70;99.90;;;;;;5078463;28;20615;-76
2024/03/26 07:54:46;;;;;;;0.30;0.20;;;11.90;99.90;;;;;;5083276;28;20517;-79
2024/03/26 07:57:11;;;;;;;0.30;0.20;;;12.00;99.90;;;;;;5083582;28;20272;-78
2024/03/26 07:59:37;;;;;;;0.30;0.20;;;12.10;99.90;;;;;;5076750;28;20645;-77
2024/03/26 08:02:03;;;;;;;0.30;0.20;;;12.20;99.90;;;;;;5083765;28;20184;-78
2024/03/26 08:04:28;;;;;;;0.30;0.20;;;12.30;99.90;;;;;;5085430;28;20216;-78
2024/03/26 08:06:54;;;;;;;0.30;0.20;;;12.50;99.90;;;;;;5082121;28;20548;-79
2024/03/26 08:09:20;;;;;;;0.30;0.20;;;12.70;99.90;;;;;;5083641;28;20374;-75
2024/03/26 08:11:45;;;;;;;0.30;0.20;;;12.80;99.90;;;;;;5083585;28;20211;-78
2024/03/26 08:14:11;;;;;;;0.30;0.20;;;13.10;99.90;;;;;;5082043;28;20200;-75
2024/03/26 08:16:37;;;;;;;0.30;0.20;;;13.30;99.90;;;;;;5081372;28;20638;-75
2024/03/26 08:19:03;;;;;;;0.30;0.20;;;13.50;99.90;;;;;;5081631;28;20235;-75
2024/03/26 08:21:29;;;;;;;0.30;0.20;;;13.80;99.90;;;;;;5079523;28;20453;-79
2024/03/26 08:23:54;;;;;;;0.30;0.20;;;14.00;98.90;;;;;;5081304;28;20961;-79
2024/03/26 08:26:20;;;;;;;0.40;0.20;;;14.20;97.90;;;;;;5079022;28;20179;-78
2024/03/26 08:28:45;;;;;;;0.30;0.20;;;14.40;97.80;;;;;;5079756;28;20210;-75
2024/03/26 08:31:11;;;;;;;0.30;0.20;;;14.80;96.70;;;;;;5082518;28;20187;-76
2024/03/26 08:33:37;;;;;;;0.40;0.20;;;15.20;96.40;;;;;;5082697;28;20714;-75
2024/03/26 08:36:04;;;;;;;0.40;0.20;;;15.90;94.80;;;;;;5082577;28;20204;-76
2024/03/26 08:38:31;;;;;;;0.40;0.20;;;16.60;93.20;;;;;;5079471;28;20755;-79
2024/03/26 08:40:56;;;;;;;0.30;0.20;;;17.30;92.40;;;;;;5081749;28;20404;-79
2024/03/26 08:43:22;;;;;;;0.30;0.20;;;17.80;91.30;;;;;;5079445;28;20440;-75
2024/03/26 08:45:48;;;;;;;0.30;0.20;;;18.10;90.60;;;;;;5076205;28;20261;-78
2024/03/26 08:48:14;;;;;;;0.50;0.50;;;18.20;90.80;;;;;;5083023;28;20597;-78
2024/03/26 08:50:40;;;;;;;0.30;0.20;;;18.10;89.60;;;;;;5081824;28;20478;-79
2024/03/26 08:53:05;;;;;;;0.30;0.20;;;17.60;86.80;;;;;;5082226;28;20461;-77
2024/03/26 08:55:32;;;;;;;0.30;0.20;;;17.20;86.10;;;;;;5079969;28;20220;-77
2024/03/26 08:57:58;;;;;;;0.77;0.77;;;16.80;86.10;;;;;;5079656;28;20237;-77
2024/03/26 09:00:24;;;;;;;0.30;0.20;;;16.80;86.50;;;;;;5081284;28;20956;-77
2024/03/26 09:02:49;;;;;;;0.30;0.20;;;16.90;86.80;;;;;;5074421;28;20211;-77
2024/03/26 09:05:15;;;;;;;0.30;0.20;;;17.10;88.80;;;;;;5082662;28;20379;-78
2024/03/26 09:07:40;;;;;;;0.30;0.20;;;17.50;88.50;;;;;;5082011;28;20334;-75
2024/03/26 09:10:07;;;;;;;0.40;0.20;;;17.80;85.80;;;;;;5080644;28;20811;-75
2024/03/26 09:12:36;;;;;;;0.30;0.20;;;17.90;85.90;;;;;;5066115;28;20205;-74
2024/03/26 09:15:03;;;;;;;0.30;0.20;;;17.90;81.30;;;;;;5071683;28;20730;-75
2024/03/26 09:17:29;;;;;;;0.30;0.20;;;17.90;83.40;;;;;;5076915;28;20437;-78
2024/03/26 09:19:55;;;;;;;0.30;0.20;;;18.10;79.10;;;;;;5075222;28;20444;-77
2024/03/26 09:22:20;;;;;;;0.30;0.20;;;18.20;80.10;;;;;;5079567;28;20513;-78
2024/03/26 09:24:46;;;;;;;0.30;0.20;;;18.30;81.30;;;;;;5080403;28;21088;-78
2024/03/26 09:27:12;;;;;;;0.30;0.20;;;18.40;81.90;;;;;;5080807;28;20623;-75
2024/03/26 09:29:38;;;;;;;0.30;0.20;;;18.70;80.90;;;;;;5076716;28;20416;-75
2024/03/26 09:32:04;;;;;;;0.30;0.20;;;18.90;81.30;;;;;;5077775;28;20223;-75
2024/03/26 09:34:30;;;;;;;0.30;0.30;;;19.20;79.70;;;;;;5076080;28;20545;-78
2024/03/26 09:36:56;;;;;;;0.30;0.20;;;19.20;73.00;;;;;;5078349;28;20209;-75
2024/03/26 09:39:22;;;;;;;0.30;0.27;;;19.00;74.50;;;;;;5076399;28;20449;-75
2024/03/26 09:41:48;;;;;;;0.40;0.20;;;19.00;72.30;;;;;;5077651;28;20540;-75
2024/03/26 09:44:14;;;;;;;0.30;0.20;;;19.20;68.40;;;;;;5074862;28;20559;-78
2024/03/26 09:46:42;;;;;;;3.50;1.90;;;19.50;63.30;;;;;;5073095;28;20488;-75
2024/03/26 09:49:09;;;;;;;0.30;0.20;;;19.60;65.70;;;;;;5072239;28;20830;-78
2024/03/26 09:51:37;;;;;;;0.40;0.20;;;19.90;69.70;;;;;;5070673;28;20579;-75
2024/03/26 09:54:03;;;;;;;0.30;0.20;;;19.90;69.50;;;;;;5068908;28;20488;-75
2024/03/26 09:56:29;;;;;;;0.30;0.20;;;19.60;69.30;;;;;;5075995;28;20425;-76
2024/03/26 09:58:54;;;;;;;0.30;0.20;;;19.50;69.00;;;;;;5077999;28;20211;-75
2024/03/26 10:01:25;;;;;;;0.30;0.20;;;19.30;68.10;;;;;;5083182;28;20526;-75
2024/03/26 10:03:52;;;;;;;0.30;0.20;;;19.20;69.90;;;;;;5083717;28;20911;-78
2024/03/26 10:06:22;;;;;;;0.30;0.20;;;19.30;70.00;;;;;;5080807;28;20769;-75
2024/03/26 10:08:48;;;;;;;0.30;0.30;;;19.10;66.80;;;;;;5082169;28;20512;-78
2024/03/26 10:11:14;;;;;;;0.30;0.20;;;18.90;67.70;;;;;;5083681;28;20475;-75
2024/03/26 10:13:40;;;;;;;0.30;0.20;;;18.80;67.00;;;;;;5086442;28;20731;-76
2024/03/26 10:16:05;;;;;;;0.30;0.20;;;18.60;67.80;;;;;;5081656;28;20412;-75
2024/03/26 10:18:31;;;;;;;0.30;0.20;;;18.30;69.50;;;;;;5069606;28;20193;-77
2024/03/26 10:20:58;;;;;;;0.30;0.20;;;18.10;69.70;;;;;;5082304;28;20339;-78
2024/03/26 10:23:26;;;;;;;0.30;0.20;;;17.90;70.30;;;;;;5080695;28;20366;-75
2024/03/26 10:25:52;;;;;;;0.30;0.20;;;17.80;68.60;;;;;;5082821;28;20949;-78
2024/03/26 10:28:17;;;;;;;0.30;0.30;;;17.70;67.40;;;;;;5080370;28;20497;-75
2024/03/26 10:30:43;;;;;;;0.67;0.67;;;17.70;68.40;;;;;;5081680;28;20305;-77
2024/03/26 10:33:11;;;;;;;0.30;0.20;;;17.70;68.30;;;;;;5082259;28;20810;-77
2024/03/26 10:35:41;;;;;;;0.30;0.20;;;17.80;69.70;;;;;;5082463;28;20229;-75
2024/03/26 10:38:11;;;;;;;0.30;0.20;;;17.80;69.90;;;;;;5079613;28;20417;-75
2024/03/26 10:40:46;;;;;;;0.30;0.20;;;17.90;68.30;;;;;;5080322;28;20669;-75
2024/03/26 10:43:12;;;;;;;0.30;0.20;;;18.00;69.00;;;;;;5083667;28;20448;-77
2024/03/26 10:45:40;;;;;;;0.30;0.20;;;18.10;69.40;;;;;;5082451;28;20497;-77
2024/03/26 10:48:08;;;;;;;0.30;0.20;;;18.10;68.40;;;;;;5079531;28;20523;-77
2024/03/26 10:50:35;;;;;;;0.30;0.20;;;18.10;67.90;;;;;;5081225;28;20764;-74
2024/03/26 10:53:03;;;;;;;0.30;0.20;;;18.00;68.60;;;;;;5076286;28;20511;-79
2024/03/26 10:55:30;;;;;;;0.30;0.20;;;18.00;69.30;;;;;;5078282;28;20485;-76
2024/03/26 10:57:57;;;;;;;0.30;0.20;;;18.10;68.90;;;;;;5079979;28;21181;-80
2024/03/26 11:00:23;;;;;;;0.30;0.30;;;18.10;69.50;;;;;;5081810;28;20425;-80
2024/03/26 11:02:53;;;;;;;0.37;0.30;;;18.10;70.40;;;;;;5082355;28;21105;-77
2024/03/26 11:05:19;;;;;;;0.30;0.20;;;18.20;69.10;;;;;;5081235;28;20431;-78
2024/03/26 11:07:45;;;;;;;0.30;0.20;;;18.20;70.40;;;;;;5078453;28;20637;-78
2024/03/26 11:10:13;;;;;;;0.30;0.20;;;18.10;71.00;;;;;;5075510;28;20537;-78
2024/03/26 11:12:40;;;;;;;0.30;0.20;;;18.10;69.90;;;;;;5081303;28;20482;-76
2024/03/26 11:15:15;;;;;;;0.30;0.20;;;18.00;70.70;;;;;;5078900;28;20717;-79
2024/03/26 11:17:58;;;;;;;0.50;0.50;;;18.00;70.90;;;;;;5079998;28;20427;-76
2024/03/26 11:20:26;;;;;;;0.43;0.40;;;18.00;69.50;;;;;;5080690;28;20449;-76
2024/03/26 11:23:02;;;;;;;0.30;0.20;;;17.90;70.10;;;;;;5079734;28;20823;-76
2024/03/26 11:25:29;;;;;;;0.30;0.20;;;18.00;69.50;;;;;;5081238;28;20481;-79
2024/03/26 11:27:58;;;;;;;0.30;0.20;;;18.10;68.60;;;;;;5081221;28;20431;-78
2024/03/26 11:30:31;;;;;;;0.63;0.63;;;18.20;69.40;;;;;;5083832;28;20757;-76
2024/03/26 11:32:57;;;;;;;0.30;0.20;;;18.20;69.60;;;;;;5080871;28;20985;-76
2024/03/26 11:35:25;;;;;;;0.30;0.20;;;18.20;68.70;;;;;;5075279;28;20431;-77
2024/03/26 11:37:53;;;;;;;1.93;1.80;;;18.20;69.60;;;;;;5081094;28;20460;-80
2024/03/26 11:40:19;;;;;;;0.30;0.20;;;18.30;68.20;;;;;;5079738;28;20939;-77
2024/03/26 11:42:46;;;;;;;1.27;1.17;;;18.30;68.00;;;;;;5079344;28;21087;-79
2024/03/26 11:45:12;;;;;;;0.30;0.30;;;18.20;67.90;;;;;;5082078;28;20833;-76
2024/03/26 11:47:38;;;;;;;0.30;0.20;;;18.10;68.40;;;;;;5079060;28;20889;-79
2024/03/26 11:50:04;;;;;;;0.30;0.20;;;18.00;68.80;;;;;;5079779;28;20448;-78
2024/03/26 11:52:30;;;;;;;0.30;0.20;;;17.80;68.90;;;;;;5077540;28;20573;-76
2024/03/26 11:55:01;;;;;;;0.30;0.30;;;17.90;68.40;;;;;;5075525;28;20437;-75
2024/03/26 11:57:30;;;;;;;0.30;0.20;;;18.00;69.60;;;;;;5059565;28;20598;-76
2024/03/26 11:59:56;;;;;;;0.30;0.20;;;18.00;69.00;;;;;;5074694;28;20771;-77
2024/03/26 12:02:22;;;;;;;0.30;0.20;;;18.00;69.10;;;;;;5076333;28;20409;-78
2024/03/26 12:04:48;;;;;;;0.30;0.20;;;18.10;69.60;;;;;;5077031;28;20190;-76
2024/03/26 12:07:20;;;;;;;0.30;0.20;;;18.20;69.70;;;;;;5078932;28;20908;-79
2024/03/26 12:09:46;;;;;;;0.30;0.20;;;18.20;69.40;;;;;;5072018;28;20576;-78
2024/03/26 12:12:13;;;;;;;0.30;0.20;;;18.20;69.30;;;;;;5075034;28;20462;-78
2024/03/26 12:14:39;;;;;;;0.30;0.20;;;18.30;69.50;;;;;;5070805;28;20457;-79
2024/03/26 12:17:06;;;;;;;0.30;0.20;;;18.30;69.10;;;;;;5077608;28;20434;-79
2024/03/26 12:19:33;;;;;;;0.30;0.20;;;18.30;69.60;;;;;;5073249;28;20466;-79
2024/03/26 12:22:05;;;;;;;0.30;0.20;;;18.20;69.10;;;;;;5075321;28;20478;-77
2024/03/26 12:24:31;;;;;;;0.30;0.30;;;18.10;68.80;;;;;;5072223;28;20425;-76
2024/03/26 12:26:57;;;;;;;0.30;0.20;;;18.10;69.80;;;;;;5072939;28;20824;-76
2024/03/26 12:29:22;;;;;;;0.30;0.20;;;18.10;70.50;;;;;;5079715;28;20288;-76
2024/03/26 12:31:48;;;;;;;0.73;0.73;;;18.10;70.10;;;;;;5078606;28;20242;-79
2024/03/26 12:34:14;;;;;;;0.30;0.20;;;18.10;70.50;;;;;;5079817;28;20583;-76
2024/03/26 12:36:40;;;;;;;0.30;0.30;;;18.10;71.60;;;;;;5079005;28;20199;-79
2024/03/26 12:39:10;;;;;;;0.30;0.20;;;18.10;69.20;;;;;;5076721;28;20348;-78
2024/03/26 12:41:36;;;;;;;1.13;1.03;;;18.10;69.80;;;;;;5075613;28;20432;-77
2024/03/26 12:44:08;;;;;;;0.30;0.20;;;18.20;70.50;;;;;;5075768;28;20570;-77
2024/03/26 12:46:34;;;;;;;0.30;0.20;;;18.20;70.90;;;;;;5079037;28;20187;-78
2024/03/26 12:49:00;;;;;;;0.30;0.20;;;18.10;69.80;;;;;;5077856;28;20476;-75